sensor_id;sensor_type;location;lat;lon;timestamp;temperature;humidity
10171;DHT22;5127;50.922;6.988;2024-03-02T00:01:46;10.90;67.40
10171;DHT22;5127;50.922;6.988;2024-03-02T00:04:13;10.90;67.60
10171;DHT22;5127;50.922;6.988;2024-03-02T00:06:41;10.90;67.70
10171;DHT22;5127;50.922;6.988;2024-03-02T00:09:09;10.90;67.70
10171;DHT22;5127;50.922;6.988;2024-03-02T00:11:37;10.90;67.70
10171;DHT22;5127;50.922;6.988;2024-03-02T00:14:06;11.00;67.80
10171;DHT22;5127;50.922;6.988;2024-03-02T00:16:33;11.00;67.80
10171;DHT22;5127;50.922;6.988;2024-03-02T00:19:02;11.00;67.70
10171;DHT22;5127;50.922;6.988;2024-03-02T00:21:29;11.00;67.70
10171;DHT22;5127;50.922;6.988;2024-03-02T00:23:58;11.10;67.80
10171;DHT22;5127;50.922;6.988;2024-03-02T00:26:25;11.10;68.60
10171;DHT22;5127;50.922;6.988;2024-03-02T00:28:55;11.10;67.90
10171;DHT22;5127;50.922;6.988;2024-03-02T00:31:24;11.10;67.90
10171;DHT22;5127;50.922;6.988;2024-03-02T00:33:51;11.10;67.80
10171;DHT22;5127;50.922;6.988;2024-03-02T00:36:24;11.10;67.80
10171;DHT22;5127;50.922;6.988;2024-03-02T00:38:53;11.20;67.80
10171;DHT22;5127;50.922;6.988;2024-03-02T00:41:22;11.20;67.90
10171;DHT22;5127;50.922;6.988;2024-03-02T00:44:00;11.20;67.90
10171;DHT22;5127;50.922;6.988;2024-03-02T00:46:33;11.30;67.40
10171;DHT22;5127;50.922;6.988;2024-03-02T00:49:03;11.30;67.60
10171;DHT22;5127;50.922;6.988;2024-03-02T00:51:31;11.30;67.70
10171;DHT22;5127;50.922;6.988;2024-03-02T00:54:00;11.30;67.70
10171;DHT22;5127;50.922;6.988;2024-03-02T00:56:30;11.30;67.60
10171;DHT22;5127;50.922;6.988;2024-03-02T00:58:58;11.30;67.80
10171;DHT22;5127;50.922;6.988;2024-03-02T01:01:25;11.30;67.80
10171;DHT22;5127;50.922;6.988;2024-03-02T01:03:54;11.30;67.80
10171;DHT22;5127;50.922;6.988;2024-03-02T01:06:21;11.40;67.80
10171;DHT22;5127;50.922;6.988;2024-03-02T01:08:49;11.40;67.80
10171;DHT22;5127;50.922;6.988;2024-03-02T01:11:17;11.40;67.70
10171;DHT22;5127;50.922;6.988;2024-03-02T01:13:45;11.40;67.60
10171;DHT22;5127;50.922;6.988;2024-03-02T01:16:12;11.40;67.50
10171;DHT22;5127;50.922;6.988;2024-03-02T01:18:39;11.40;67.40
10171;DHT22;5127;50.922;6.988;2024-03-02T01:21:08;11.40;67.30
10171;DHT22;5127;50.922;6.988;2024-03-02T01:23:35;11.40;67.30
10171;DHT22;5127;50.922;6.988;2024-03-02T01:26:03;11.40;67.50
10171;DHT22;5127;50.922;6.988;2024-03-02T01:28:30;11.30;67.30
10171;DHT22;5127;50.922;6.988;2024-03-02T01:30:57;11.30;67.30
10171;DHT22;5127;50.922;6.988;2024-03-02T01:33:25;11.30;67.40
10171;DHT22;5127;50.922;6.988;2024-03-02T01:35:52;11.20;67.20
10171;DHT22;5127;50.922;6.988;2024-03-02T01:38:21;11.20;67.30
10171;DHT22;5127;50.922;6.988;2024-03-02T01:40:48;11.20;67.20
10171;DHT22;5127;50.922;6.988;2024-03-02T01:43:15;11.20;67.50
10171;DHT22;5127;50.922;6.988;2024-03-02T01:45:43;11.10;67.30
10171;DHT22;5127;50.922;6.988;2024-03-02T01:48:11;11.10;67.30
10171;DHT22;5127;50.922;6.988;2024-03-02T01:50:38;11.10;67.40
10171;DHT22;5127;50.922;6.988;2024-03-02T01:53:05;11.10;67.50
10171;DHT22;5127;50.922;6.988;2024-03-02T01:55:35;11.10;67.60
10171;DHT22;5127;50.922;6.988;2024-03-02T01:58:02;11.10;67.60
10171;DHT22;5127;50.922;6.988;2024-03-02T02:00:30;11.10;67.70
10171;DHT22;5127;50.922;6.988;2024-03-02T02:02:58;11.00;67.70
10171;DHT22;5127;50.922;6.988;2024-03-02T02:05:25;11.00;67.70
10171;DHT22;5127;50.922;6.988;2024-03-02T02:07:53;11.00;67.80
10171;DHT22;5127;50.922;6.988;2024-03-02T02:10:20;11.10;68.00
10171;DHT22;5127;50.922;6.988;2024-03-02T02:12:48;11.10;68.00
10171;DHT22;5127;50.922;6.988;2024-03-02T02:15:25;11.10;68.00
10171;DHT22;5127;50.922;6.988;2024-03-02T02:17:53;11.10;67.70
10171;DHT22;5127;50.922;6.988;2024-03-02T02:20:21;11.10;68.10
10171;DHT22;5127;50.922;6.988;2024-03-02T02:22:56;11.20;68.20
10171;DHT22;5127;50.922;6.988;2024-03-02T02:25:24;11.20;67.80
10171;DHT22;5127;50.922;6.988;2024-03-02T02:27:51;11.20;68.20
10171;DHT22;5127;50.922;6.988;2024-03-02T02:30:20;11.30;68.30
10171;DHT22;5127;50.922;6.988;2024-03-02T02:32:48;11.30;68.20
10171;DHT22;5127;50.922;6.988;2024-03-02T02:35:15;11.30;68.10
10171;DHT22;5127;50.922;6.988;2024-03-02T02:37:42;11.30;68.00
10171;DHT22;5127;50.922;6.988;2024-03-02T02:40:13;11.30;68.10
10171;DHT22;5127;50.922;6.988;2024-03-02T02:42:54;11.30;67.80
10171;DHT22;5127;50.922;6.988;2024-03-02T02:45:21;11.30;68.00
10171;DHT22;5127;50.922;6.988;2024-03-02T02:47:49;11.30;68.00
10171;DHT22;5127;50.922;6.988;2024-03-02T02:50:17;11.40;68.00
10171;DHT22;5127;50.922;6.988;2024-03-02T02:52:44;11.40;68.00
10171;DHT22;5127;50.922;6.988;2024-03-02T02:55:13;11.40;67.90
10171;DHT22;5127;50.922;6.988;2024-03-02T02:57:42;11.40;67.70
10171;DHT22;5127;50.922;6.988;2024-03-02T03:00:11;11.40;67.80
10171;DHT22;5127;50.922;6.988;2024-03-02T03:02:40;11.40;67.70
10171;DHT22;5127;50.922;6.988;2024-03-02T03:05:09;11.40;67.70
10171;DHT22;5127;50.922;6.988;2024-03-02T03:07:37;11.40;67.60
10171;DHT22;5127;50.922;6.988;2024-03-02T03:10:06;11.40;67.70
10171;DHT22;5127;50.922;6.988;2024-03-02T03:12:35;11.50;67.70
10171;DHT22;5127;50.922;6.988;2024-03-02T03:15:03;11.40;67.50
10171;DHT22;5127;50.922;6.988;2024-03-02T03:17:32;11.40;67.50
10171;DHT22;5127;50.922;6.988;2024-03-02T03:20:00;11.40;67.70
10171;DHT22;5127;50.922;6.988;2024-03-02T03:22:28;11.40;67.40
10171;DHT22;5127;50.922;6.988;2024-03-02T03:24:56;11.50;67.50
10171;DHT22;5127;50.922;6.988;2024-03-02T03:27:23;11.40;67.50
10171;DHT22;5127;50.922;6.988;2024-03-02T03:29:52;11.40;67.50
10171;DHT22;5127;50.922;6.988;2024-03-02T03:32:20;11.40;67.50
10171;DHT22;5127;50.922;6.988;2024-03-02T03:34:47;11.40;67.70
10171;DHT22;5127;50.922;6.988;2024-03-02T03:37:15;11.50;67.70
10171;DHT22;5127;50.922;6.988;2024-03-02T03:39:42;11.50;67.70
10171;DHT22;5127;50.922;6.988;2024-03-02T03:42:09;11.40;67.60
10171;DHT22;5127;50.922;6.988;2024-03-02T03:44:36;11.40;67.60
10171;DHT22;5127;50.922;6.988;2024-03-02T03:47:06;11.50;67.70
10171;DHT22;5127;50.922;6.988;2024-03-02T03:49:34;11.40;67.40
10171;DHT22;5127;50.922;6.988;2024-03-02T03:52:01;11.40;67.40
10171;DHT22;5127;50.922;6.988;2024-03-02T03:54:30;11.40;67.40
10171;DHT22;5127;50.922;6.988;2024-03-02T03:56:57;11.40;67.40
10171;DHT22;5127;50.922;6.988;2024-03-02T03:59:24;11.40;67.40
10171;DHT22;5127;50.922;6.988;2024-03-02T04:01:51;11.40;67.40
10171;DHT22;5127;50.922;6.988;2024-03-02T04:04:20;11.40;67.30
10171;DHT22;5127;50.922;6.988;2024-03-02T04:06:48;11.40;67.20
10171;DHT22;5127;50.922;6.988;2024-03-02T04:09:16;11.40;67.30
10171;DHT22;5127;50.922;6.988;2024-03-02T04:11:44;11.30;67.20
10171;DHT22;5127;50.922;6.988;2024-03-02T04:14:11;11.30;67.10
10171;DHT22;5127;50.922;6.988;2024-03-02T04:16:38;11.30;67.10
10171;DHT22;5127;50.922;6.988;2024-03-02T04:19:06;11.30;67.10
10171;DHT22;5127;50.922;6.988;2024-03-02T04:21:34;11.20;67.10
10171;DHT22;5127;50.922;6.988;2024-03-02T04:24:02;11.10;66.90
10171;DHT22;5127;50.922;6.988;2024-03-02T04:26:29;11.10;67.00
10171;DHT22;5127;50.922;6.988;2024-03-02T04:28:56;11.10;67.40
10171;DHT22;5127;50.922;6.988;2024-03-02T04:31:24;11.00;67.00
10171;DHT22;5127;50.922;6.988;2024-03-02T04:33:51;11.00;67.00
10171;DHT22;5127;50.922;6.988;2024-03-02T04:36:18;10.90;67.10
10171;DHT22;5127;50.922;6.988;2024-03-02T04:38:47;10.90;67.20
10171;DHT22;5127;50.922;6.988;2024-03-02T04:41:15;10.90;67.30
10171;DHT22;5127;50.922;6.988;2024-03-02T04:43:43;10.80;67.40
10171;DHT22;5127;50.922;6.988;2024-03-02T04:46:10;10.80;67.40
10171;DHT22;5127;50.922;6.988;2024-03-02T04:48:38;10.80;67.30
10171;DHT22;5127;50.922;6.988;2024-03-02T04:51:06;10.80;67.30
10171;DHT22;5127;50.922;6.988;2024-03-02T04:53:33;10.80;67.30
10171;DHT22;5127;50.922;6.988;2024-03-02T04:56:02;10.70;67.20
10171;DHT22;5127;50.922;6.988;2024-03-02T04:59:06;10.70;67.20
10171;DHT22;5127;50.922;6.988;2024-03-02T05:01:34;10.70;67.30
10171;DHT22;5127;50.922;6.988;2024-03-02T05:04:01;10.70;67.40
10171;DHT22;5127;50.922;6.988;2024-03-02T05:06:28;10.60;67.30
10171;DHT22;5127;50.922;6.988;2024-03-02T05:08:56;10.50;67.40
10171;DHT22;5127;50.922;6.988;2024-03-02T05:11:24;10.50;67.40
10171;DHT22;5127;50.922;6.988;2024-03-02T05:14:09;10.50;67.50
10171;DHT22;5127;50.922;6.988;2024-03-02T05:16:37;10.40;67.40
10171;DHT22;5127;50.922;6.988;2024-03-02T05:19:04;10.40;67.40
10171;DHT22;5127;50.922;6.988;2024-03-02T05:21:33;10.40;67.50
10171;DHT22;5127;50.922;6.988;2024-03-02T05:24:00;10.30;67.40
10171;DHT22;5127;50.922;6.988;2024-03-02T05:26:29;10.30;67.40
10171;DHT22;5127;50.922;6.988;2024-03-02T05:28:56;10.30;67.30
10171;DHT22;5127;50.922;6.988;2024-03-02T05:31:25;10.30;67.50
10171;DHT22;5127;50.922;6.988;2024-03-02T05:33:52;10.20;67.40
10171;DHT22;5127;50.922;6.988;2024-03-02T05:36:19;10.20;67.60
10171;DHT22;5127;50.922;6.988;2024-03-02T05:38:47;10.10;67.70
10171;DHT22;5127;50.922;6.988;2024-03-02T05:41:15;10.10;67.70
10171;DHT22;5127;50.922;6.988;2024-03-02T05:43:43;10.10;67.70
10171;DHT22;5127;50.922;6.988;2024-03-02T05:46:10;10.00;67.70
10171;DHT22;5127;50.922;6.988;2024-03-02T05:48:38;10.00;67.70
10171;DHT22;5127;50.922;6.988;2024-03-02T05:51:05;10.00;67.80
10171;DHT22;5127;50.922;6.988;2024-03-02T05:53:32;10.00;67.80
10171;DHT22;5127;50.922;6.988;2024-03-02T05:56:00;10.00;67.90
10171;DHT22;5127;50.922;6.988;2024-03-02T05:58:27;9.90;68.90
10171;DHT22;5127;50.922;6.988;2024-03-02T06:01:10;10.00;67.90
10171;DHT22;5127;50.922;6.988;2024-03-02T06:03:37;9.90;69.10
10171;DHT22;5127;50.922;6.988;2024-03-02T06:06:05;9.90;69.10
10171;DHT22;5127;50.922;6.988;2024-03-02T06:08:32;9.90;69.40
10171;DHT22;5127;50.922;6.988;2024-03-02T06:10:59;9.90;69.50
10171;DHT22;5127;50.922;6.988;2024-03-02T06:13:27;9.90;69.60
10171;DHT22;5127;50.922;6.988;2024-03-02T06:15:54;9.90;69.60
10171;DHT22;5127;50.922;6.988;2024-03-02T06:18:23;10.00;68.70
10171;DHT22;5127;50.922;6.988;2024-03-02T06:20:50;10.00;68.50
10171;DHT22;5127;50.922;6.988;2024-03-02T06:23:17;10.00;68.70
10171;DHT22;5127;50.922;6.988;2024-03-02T06:25:44;10.00;68.60
10171;DHT22;5127;50.922;6.988;2024-03-02T06:28:12;10.10;68.70
10171;DHT22;5127;50.922;6.988;2024-03-02T06:30:41;10.10;68.70
10171;DHT22;5127;50.922;6.988;2024-03-02T06:33:09;10.10;68.70
10171;DHT22;5127;50.922;6.988;2024-03-02T06:35:37;10.10;68.70
10171;DHT22;5127;50.922;6.988;2024-03-02T06:38:05;10.10;68.70
10171;DHT22;5127;50.922;6.988;2024-03-02T06:40:32;10.10;68.80
10171;DHT22;5127;50.922;6.988;2024-03-02T06:43:00;10.20;68.70
10171;DHT22;5127;50.922;6.988;2024-03-02T06:45:27;10.20;68.80
10171;DHT22;5127;50.922;6.988;2024-03-02T06:47:56;10.20;68.80
10171;DHT22;5127;50.922;6.988;2024-03-02T06:50:23;10.20;68.70
10171;DHT22;5127;50.922;6.988;2024-03-02T06:52:52;10.30;68.90
10171;DHT22;5127;50.922;6.988;2024-03-02T06:55:19;10.30;68.90
10171;DHT22;5127;50.922;6.988;2024-03-02T06:57:47;10.30;68.90
10171;DHT22;5127;50.922;6.988;2024-03-02T07:00:14;10.30;68.90
10171;DHT22;5127;50.922;6.988;2024-03-02T07:02:43;10.30;69.00
10171;DHT22;5127;50.922;6.988;2024-03-02T07:05:11;10.30;68.90
10171;DHT22;5127;50.922;6.988;2024-03-02T07:07:39;10.40;69.10
10171;DHT22;5127;50.922;6.988;2024-03-02T07:10:08;10.40;69.00
10171;DHT22;5127;50.922;6.988;2024-03-02T07:12:35;10.50;69.00
10171;DHT22;5127;50.922;6.988;2024-03-02T07:15:04;10.40;68.90
10171;DHT22;5127;50.922;6.988;2024-03-02T07:17:49;10.50;69.10
10171;DHT22;5127;50.922;6.988;2024-03-02T07:20:17;10.50;69.40
10171;DHT22;5127;50.922;6.988;2024-03-02T07:22:44;10.60;69.50
10171;DHT22;5127;50.922;6.988;2024-03-02T07:25:13;10.60;69.50
10171;DHT22;5127;50.922;6.988;2024-03-02T07:27:40;10.70;69.40
10171;DHT22;5127;50.922;6.988;2024-03-02T07:30:12;10.80;69.60
10171;DHT22;5127;50.922;6.988;2024-03-02T07:32:42;10.80;69.60
10171;DHT22;5127;50.922;6.988;2024-03-02T07:35:21;10.90;70.20
10171;DHT22;5127;50.922;6.988;2024-03-02T07:37:52;11.10;70.70
10171;DHT22;5127;50.922;6.988;2024-03-02T07:40:21;11.30;71.20
10171;DHT22;5127;50.922;6.988;2024-03-02T07:42:48;11.50;71.00
10171;DHT22;5127;50.922;6.988;2024-03-02T07:45:34;11.60;71.20
10171;DHT22;5127;50.922;6.988;2024-03-02T07:48:41;11.80;70.50
10171;DHT22;5127;50.922;6.988;2024-03-02T07:51:41;12.00;69.90
10171;DHT22;5127;50.922;6.988;2024-03-02T07:54:19;12.10;69.60
10171;DHT22;5127;50.922;6.988;2024-03-02T07:56:56;12.20;69.60
10171;DHT22;5127;50.922;6.988;2024-03-02T07:59:30;12.30;68.70
10171;DHT22;5127;50.922;6.988;2024-03-02T08:01:58;12.30;69.30
10171;DHT22;5127;50.922;6.988;2024-03-02T08:04:27;12.40;69.40
10171;DHT22;5127;50.922;6.988;2024-03-02T08:06:54;12.50;69.80
10171;DHT22;5127;50.922;6.988;2024-03-02T08:09:21;12.60;70.50
10171;DHT22;5127;50.922;6.988;2024-03-02T08:11:48;12.70;70.90
10171;DHT22;5127;50.922;6.988;2024-03-02T08:14:17;12.90;71.40
10171;DHT22;5127;50.922;6.988;2024-03-02T08:16:45;13.20;71.80
10171;DHT22;5127;50.922;6.988;2024-03-02T08:19:12;13.50;72.10
10171;DHT22;5127;50.922;6.988;2024-03-02T08:21:40;13.80;72.20
10171;DHT22;5127;50.922;6.988;2024-03-02T08:24:07;14.10;72.00
10171;DHT22;5127;50.922;6.988;2024-03-02T08:26:34;14.40;72.30
10171;DHT22;5127;50.922;6.988;2024-03-02T08:29:02;14.80;72.00
10171;DHT22;5127;50.922;6.988;2024-03-02T08:31:30;15.00;71.00
10171;DHT22;5127;50.922;6.988;2024-03-02T08:33:58;15.30;69.80
10171;DHT22;5127;50.922;6.988;2024-03-02T08:36:26;15.40;69.40
10171;DHT22;5127;50.922;6.988;2024-03-02T08:38:53;15.50;69.10
10171;DHT22;5127;50.922;6.988;2024-03-02T08:41:21;15.60;68.90
10171;DHT22;5127;50.922;6.988;2024-03-02T08:43:49;15.70;69.30
10171;DHT22;5127;50.922;6.988;2024-03-02T08:46:16;15.90;69.80
10171;DHT22;5127;50.922;6.988;2024-03-02T08:48:45;16.00;69.80
10171;DHT22;5127;50.922;6.988;2024-03-02T08:51:12;16.20;68.60
10171;DHT22;5127;50.922;6.988;2024-03-02T08:53:39;16.40;68.70
10171;DHT22;5127;50.922;6.988;2024-03-02T08:56:07;16.50;68.40
10171;DHT22;5127;50.922;6.988;2024-03-02T08:58:34;16.50;67.50
10171;DHT22;5127;50.922;6.988;2024-03-02T09:01:02;16.60;68.10
10171;DHT22;5127;50.922;6.988;2024-03-02T09:03:29;16.60;67.30
10171;DHT22;5127;50.922;6.988;2024-03-02T09:06:00;16.70;67.20
10171;DHT22;5127;50.922;6.988;2024-03-02T09:08:27;16.70;66.70
10171;DHT22;5127;50.922;6.988;2024-03-02T09:10:55;16.70;66.60
10171;DHT22;5127;50.922;6.988;2024-03-02T09:13:23;16.60;66.20
10171;DHT22;5127;50.922;6.988;2024-03-02T09:15:50;16.60;65.00
10171;DHT22;5127;50.922;6.988;2024-03-02T09:18:17;16.50;64.60
10171;DHT22;5127;50.922;6.988;2024-03-02T09:20:44;16.40;64.90
10171;DHT22;5127;50.922;6.988;2024-03-02T09:23:14;16.30;64.60
10171;DHT22;5127;50.922;6.988;2024-03-02T09:25:41;16.20;64.30
10171;DHT22;5127;50.922;6.988;2024-03-02T09:28:08;16.10;64.10
10171;DHT22;5127;50.922;6.988;2024-03-02T09:30:36;16.00;64.20
10171;DHT22;5127;50.922;6.988;2024-03-02T09:33:04;15.90;64.00
10171;DHT22;5127;50.922;6.988;2024-03-02T09:35:31;15.80;63.90
10171;DHT22;5127;50.922;6.988;2024-03-02T09:37:59;15.70;64.20
10171;DHT22;5127;50.922;6.988;2024-03-02T09:40:27;15.60;64.00
10171;DHT22;5127;50.922;6.988;2024-03-02T09:42:55;15.50;63.80
10171;DHT22;5127;50.922;6.988;2024-03-02T09:45:24;15.40;63.90
10171;DHT22;5127;50.922;6.988;2024-03-02T09:47:52;15.40;63.90
10171;DHT22;5127;50.922;6.988;2024-03-02T09:50:19;15.30;64.10
10171;DHT22;5127;50.922;6.988;2024-03-02T09:52:48;15.20;64.00
10171;DHT22;5127;50.922;6.988;2024-03-02T09:55:16;15.20;63.60
10171;DHT22;5127;50.922;6.988;2024-03-02T09:57:46;15.10;64.00
10171;DHT22;5127;50.922;6.988;2024-03-02T10:00:15;15.00;63.80
10171;DHT22;5127;50.922;6.988;2024-03-02T10:02:42;15.00;64.30
10171;DHT22;5127;50.922;6.988;2024-03-02T10:05:10;15.00;64.30
10171;DHT22;5127;50.922;6.988;2024-03-02T10:07:38;14.90;63.80
10171;DHT22;5127;50.922;6.988;2024-03-02T10:10:15;14.90;64.10
10171;DHT22;5127;50.922;6.988;2024-03-02T10:12:43;14.90;63.20
10171;DHT22;5127;50.922;6.988;2024-03-02T10:15:11;14.80;64.50
10171;DHT22;5127;50.922;6.988;2024-03-02T10:17:39;14.80;64.00
10171;DHT22;5127;50.922;6.988;2024-03-02T10:20:22;14.80;64.40
10171;DHT22;5127;50.922;6.988;2024-03-02T10:22:50;14.80;63.20
10171;DHT22;5127;50.922;6.988;2024-03-02T10:25:29;14.80;64.60
10171;DHT22;5127;50.922;6.988;2024-03-02T10:27:58;14.80;63.00
10171;DHT22;5127;50.922;6.988;2024-03-02T10:30:27;14.80;64.30
10171;DHT22;5127;50.922;6.988;2024-03-02T10:32:55;14.80;63.50
10171;DHT22;5127;50.922;6.988;2024-03-02T10:35:23;14.80;64.20
10171;DHT22;5127;50.922;6.988;2024-03-02T10:37:52;14.80;64.30
10171;DHT22;5127;50.922;6.988;2024-03-02T10:40:21;14.80;64.20
10171;DHT22;5127;50.922;6.988;2024-03-02T10:42:50;14.80;63.50
10171;DHT22;5127;50.922;6.988;2024-03-02T10:45:19;14.80;64.30
10171;DHT22;5127;50.922;6.988;2024-03-02T10:47:49;14.80;63.90
10171;DHT22;5127;50.922;6.988;2024-03-02T10:50:17;14.90;64.00
10171;DHT22;5127;50.922;6.988;2024-03-02T10:52:45;14.90;64.20
10171;DHT22;5127;50.922;6.988;2024-03-02T10:55:12;14.90;64.30
10171;DHT22;5127;50.922;6.988;2024-03-02T10:57:42;14.90;64.80
10171;DHT22;5127;50.922;6.988;2024-03-02T11:00:13;14.90;63.50
10171;DHT22;5127;50.922;6.988;2024-03-02T11:02:51;15.00;63.70
10171;DHT22;5127;50.922;6.988;2024-03-02T11:05:26;15.10;63.20
10171;DHT22;5127;50.922;6.988;2024-03-02T11:07:57;15.00;63.20
10171;DHT22;5127;50.922;6.988;2024-03-02T11:10:29;15.10;63.50
10171;DHT22;5127;50.922;6.988;2024-03-02T11:13:01;15.10;63.80
10171;DHT22;5127;50.922;6.988;2024-03-02T11:15:31;15.10;63.80
10171;DHT22;5127;50.922;6.988;2024-03-02T11:18:00;15.20;63.70
10171;DHT22;5127;50.922;6.988;2024-03-02T11:20:31;15.20;63.30
10171;DHT22;5127;50.922;6.988;2024-03-02T11:23:04;15.20;63.50
10171;DHT22;5127;50.922;6.988;2024-03-02T11:25:32;15.20;62.60
10171;DHT22;5127;50.922;6.988;2024-03-02T11:28:00;15.30;63.80
10171;DHT22;5127;50.922;6.988;2024-03-02T11:30:50;15.30;63.40
10171;DHT22;5127;50.922;6.988;2024-03-02T11:33:26;15.40;61.70
10171;DHT22;5127;50.922;6.988;2024-03-02T11:35:56;15.40;62.50
10171;DHT22;5127;50.922;6.988;2024-03-02T11:38:33;15.40;63.40
10171;DHT22;5127;50.922;6.988;2024-03-02T11:41:02;15.40;62.80
10171;DHT22;5127;50.922;6.988;2024-03-02T11:43:33;15.40;64.00
10171;DHT22;5127;50.922;6.988;2024-03-02T11:46:00;15.50;63.20
10171;DHT22;5127;50.922;6.988;2024-03-02T11:48:35;15.50;63.50
10171;DHT22;5127;50.922;6.988;2024-03-02T11:51:03;15.60;63.20
10171;DHT22;5127;50.922;6.988;2024-03-02T11:53:31;15.60;63.60
10171;DHT22;5127;50.922;6.988;2024-03-02T11:55:59;15.60;63.40
10171;DHT22;5127;50.922;6.988;2024-03-02T11:58:27;15.70;63.50
10171;DHT22;5127;50.922;6.988;2024-03-02T12:00:56;15.70;63.10
10171;DHT22;5127;50.922;6.988;2024-03-02T12:03:25;15.80;63.10
10171;DHT22;5127;50.922;6.988;2024-03-02T12:05:55;15.70;62.70
10171;DHT22;5127;50.922;6.988;2024-03-02T12:08:22;15.80;63.90
10171;DHT22;5127;50.922;6.988;2024-03-02T12:10:57;15.80;63.50
10171;DHT22;5127;50.922;6.988;2024-03-02T12:13:26;15.90;62.90
10171;DHT22;5127;50.922;6.988;2024-03-02T12:15:55;15.90;63.10
10171;DHT22;5127;50.922;6.988;2024-03-02T12:18:23;16.00;63.70
10171;DHT22;5127;50.922;6.988;2024-03-02T12:20:51;16.00;63.80
10171;DHT22;5127;50.922;6.988;2024-03-02T12:23:23;16.10;63.50
10171;DHT22;5127;50.922;6.988;2024-03-02T12:25:51;16.20;63.80
10171;DHT22;5127;50.922;6.988;2024-03-02T12:28:19;16.20;64.00
10171;DHT22;5127;50.922;6.988;2024-03-02T12:30:46;16.30;63.60
10171;DHT22;5127;50.922;6.988;2024-03-02T12:33:14;16.40;64.10
10171;DHT22;5127;50.922;6.988;2024-03-02T12:35:42;16.50;63.30
10171;DHT22;5127;50.922;6.988;2024-03-02T12:38:09;16.50;62.70
10171;DHT22;5127;50.922;6.988;2024-03-02T12:40:39;16.60;62.70
10171;DHT22;5127;50.922;6.988;2024-03-02T12:43:06;16.70;62.80
10171;DHT22;5127;50.922;6.988;2024-03-02T12:45:34;16.70;62.60
10171;DHT22;5127;50.922;6.988;2024-03-02T12:48:01;16.70;62.90
10171;DHT22;5127;50.922;6.988;2024-03-02T12:50:29;16.80;63.50
10171;DHT22;5127;50.922;6.988;2024-03-02T12:52:56;16.80;63.60
10171;DHT22;5127;50.922;6.988;2024-03-02T12:55:24;16.90;63.60
10171;DHT22;5127;50.922;6.988;2024-03-02T12:57:53;17.00;63.20
10171;DHT22;5127;50.922;6.988;2024-03-02T13:00:21;17.00;62.40
10171;DHT22;5127;50.922;6.988;2024-03-02T13:02:49;17.10;62.80
10171;DHT22;5127;50.922;6.988;2024-03-02T13:05:17;17.10;62.90
10171;DHT22;5127;50.922;6.988;2024-03-02T13:07:47;17.20;62.40
10171;DHT22;5127;50.922;6.988;2024-03-02T13:10:14;17.10;62.00
10171;DHT22;5127;50.922;6.988;2024-03-02T13:12:42;17.20;62.70
10171;DHT22;5127;50.922;6.988;2024-03-02T13:15:11;17.20;62.80
10171;DHT22;5127;50.922;6.988;2024-03-02T13:17:39;17.20;62.10
10171;DHT22;5127;50.922;6.988;2024-03-02T13:20:07;17.30;61.70
10171;DHT22;5127;50.922;6.988;2024-03-02T13:22:36;17.30;62.10
10171;DHT22;5127;50.922;6.988;2024-03-02T13:25:04;17.30;62.20
10171;DHT22;5127;50.922;6.988;2024-03-02T13:27:32;17.30;61.70
10171;DHT22;5127;50.922;6.988;2024-03-02T13:29:59;17.30;62.00
10171;DHT22;5127;50.922;6.988;2024-03-02T13:32:28;17.30;61.90
10171;DHT22;5127;50.922;6.988;2024-03-02T13:34:56;17.30;61.20
10171;DHT22;5127;50.922;6.988;2024-03-02T13:37:23;17.30;61.40
10171;DHT22;5127;50.922;6.988;2024-03-02T13:39:50;17.30;61.20
10171;DHT22;5127;50.922;6.988;2024-03-02T13:42:18;17.30;61.60
10171;DHT22;5127;50.922;6.988;2024-03-02T13:44:45;17.30;61.60
10171;DHT22;5127;50.922;6.988;2024-03-02T13:47:14;17.30;61.60
10171;DHT22;5127;50.922;6.988;2024-03-02T13:49:43;17.30;62.00
10171;DHT22;5127;50.922;6.988;2024-03-02T13:52:12;17.40;61.90
10171;DHT22;5127;50.922;6.988;2024-03-02T13:54:40;17.40;62.30
10171;DHT22;5127;50.922;6.988;2024-03-02T13:57:08;17.50;61.60
10171;DHT22;5127;50.922;6.988;2024-03-02T13:59:36;17.50;61.60
10171;DHT22;5127;50.922;6.988;2024-03-02T14:02:05;17.60;62.00
10171;DHT22;5127;50.922;6.988;2024-03-02T14:04:32;17.60;61.80
10171;DHT22;5127;50.922;6.988;2024-03-02T14:07:02;17.70;62.20
10171;DHT22;5127;50.922;6.988;2024-03-02T14:09:29;17.70;61.40
10171;DHT22;5127;50.922;6.988;2024-03-02T14:11:57;17.80;61.40
10171;DHT22;5127;50.922;6.988;2024-03-02T14:14:26;17.90;61.20
10171;DHT22;5127;50.922;6.988;2024-03-02T14:16:54;17.90;61.20
10171;DHT22;5127;50.922;6.988;2024-03-02T14:19:23;17.90;61.30
10171;DHT22;5127;50.922;6.988;2024-03-02T14:21:50;17.90;61.00
10171;DHT22;5127;50.922;6.988;2024-03-02T14:24:19;17.90;60.90
10171;DHT22;5127;50.922;6.988;2024-03-02T14:26:50;17.90;60.80
10171;DHT22;5127;50.922;6.988;2024-03-02T14:29:17;18.00;61.40
10171;DHT22;5127;50.922;6.988;2024-03-02T14:31:44;18.00;60.90
10171;DHT22;5127;50.922;6.988;2024-03-02T14:34:14;18.00;60.90
10171;DHT22;5127;50.922;6.988;2024-03-02T14:36:41;18.00;60.70
10171;DHT22;5127;50.922;6.988;2024-03-02T14:39:09;18.00;60.70
10171;DHT22;5127;50.922;6.988;2024-03-02T14:41:38;18.00;60.30
10171;DHT22;5127;50.922;6.988;2024-03-02T14:44:05;18.00;60.00
10171;DHT22;5127;50.922;6.988;2024-03-02T14:46:33;18.00;59.80
10171;DHT22;5127;50.922;6.988;2024-03-02T14:49:00;17.90;60.00
10171;DHT22;5127;50.922;6.988;2024-03-02T14:51:28;17.90;59.70
10171;DHT22;5127;50.922;6.988;2024-03-02T14:53:56;17.90;59.60
10171;DHT22;5127;50.922;6.988;2024-03-02T14:56:25;17.80;59.30
10171;DHT22;5127;50.922;6.988;2024-03-02T14:58:53;17.70;59.80
10171;DHT22;5127;50.922;6.988;2024-03-02T15:01:21;17.70;59.00
10171;DHT22;5127;50.922;6.988;2024-03-02T15:03:49;17.60;59.50
10171;DHT22;5127;50.922;6.988;2024-03-02T15:06:16;17.60;59.10
10171;DHT22;5127;50.922;6.988;2024-03-02T15:08:44;17.50;59.40
10171;DHT22;5127;50.922;6.988;2024-03-02T15:11:12;17.50;59.50
10171;DHT22;5127;50.922;6.988;2024-03-02T15:13:40;17.40;59.50
10171;DHT22;5127;50.922;6.988;2024-03-02T15:16:08;17.40;59.60
10171;DHT22;5127;50.922;6.988;2024-03-02T15:18:40;17.30;59.10
10171;DHT22;5127;50.922;6.988;2024-03-02T15:21:07;17.30;58.80
10171;DHT22;5127;50.922;6.988;2024-03-02T15:23:34;17.30;59.80
10171;DHT22;5127;50.922;6.988;2024-03-02T15:26:02;17.30;59.80
10171;DHT22;5127;50.922;6.988;2024-03-02T15:28:31;17.20;60.00
10171;DHT22;5127;50.922;6.988;2024-03-02T15:30:58;17.20;59.70
10171;DHT22;5127;50.922;6.988;2024-03-02T15:33:27;17.20;59.40
10171;DHT22;5127;50.922;6.988;2024-03-02T15:35:58;17.20;59.00
10171;DHT22;5127;50.922;6.988;2024-03-02T15:38:25;17.20;59.60
10171;DHT22;5127;50.922;6.988;2024-03-02T15:40:53;17.20;59.50
10171;DHT22;5127;50.922;6.988;2024-03-02T15:43:20;17.20;59.50
10171;DHT22;5127;50.922;6.988;2024-03-02T15:45:47;17.20;59.30
10171;DHT22;5127;50.922;6.988;2024-03-02T15:48:15;17.20;59.60
10171;DHT22;5127;50.922;6.988;2024-03-02T15:50:43;17.20;59.40
10171;DHT22;5127;50.922;6.988;2024-03-02T15:53:11;17.20;59.50
10171;DHT22;5127;50.922;6.988;2024-03-02T15:55:39;17.10;59.20
10171;DHT22;5127;50.922;6.988;2024-03-02T15:58:06;17.10;59.40